sensor_id;sensor_type;location;lat;lon;timestamp;P1;durP1;ratioP1;P2;durP2;ratioP2
37001;SDS011;22913;51.910;8.374;2022-10-17T00:01:14;4.40;;;4.00;;
37001;SDS011;22913;51.910;8.374;2022-10-17T00:04:00;4.37;;;4.07;;
37001;SDS011;22913;51.910;8.374;2022-10-17T00:06:46;4.43;;;4.03;;
37001;SDS011;22913;51.910;8.374;2022-10-17T00:09:31;4.00;;;3.67;;
37001;SDS011;22913;51.910;8.374;2022-10-17T00:12:18;4.93;;;4.37;;
37001;SDS011;22913;51.910;8.374;2022-10-17T00:15:06;5.00;;;4.60;;
37001;SDS011;22913;51.910;8.374;2022-10-17T00:17:52;4.77;;;4.37;;
37001;SDS011;22913;51.910;8.374;2022-10-17T00:20:37;4.80;;;4.50;;
37001;SDS011;22913;51.910;8.374;2022-10-17T00:23:23;5.57;;;5.10;;
37001;SDS011;22913;51.910;8.374;2022-10-17T00:26:10;8.07;;;4.80;;
37001;SDS011;22913;51.910;8.374;2022-10-17T00:28:57;5.40;;;4.90;;
37001;SDS011;22913;51.910;8.374;2022-10-17T00:31:44;5.37;;;4.40;;
37001;SDS011;22913;51.910;8.374;2022-10-17T00:34:29;7.93;;;4.90;;
37001;SDS011;22913;51.910;8.374;2022-10-17T00:37:15;4.83;;;4.47;;
37001;SDS011;22913;51.910;8.374;2022-10-17T00:40:01;5.63;;;4.97;;
37001;SDS011;22913;51.910;8.374;2022-10-17T00:42:48;4.90;;;4.50;;
37001;SDS011;22913;51.910;8.374;2022-10-17T00:45:35;5.43;;;5.03;;
37001;SDS011;22913;51.910;8.374;2022-10-17T00:48:23;6.17;;;5.50;;
37001;SDS011;22913;51.910;8.374;2022-10-17T00:51:09;5.97;;;5.30;;
37001;SDS011;22913;51.910;8.374;2022-10-17T00:53:56;5.80;;;5.40;;
37001;SDS011;22913;51.910;8.374;2022-10-17T00:56:42;5.70;;;5.30;;
37001;SDS011;22913;51.910;8.374;2022-10-17T00:59:32;6.13;;;5.63;;
37001;SDS011;22913;51.910;8.374;2022-10-17T01:02:21;7.20;;;5.27;;
37001;SDS011;22913;51.910;8.374;2022-10-17T01:05:10;6.20;;;5.63;;
37001;SDS011;22913;51.910;8.374;2022-10-17T01:07:56;6.33;;;5.73;;
37001;SDS011;22913;51.910;8.374;2022-10-17T01:10:44;6.33;;;5.73;;
37001;SDS011;22913;51.910;8.374;2022-10-17T01:13:40;6.17;;;5.50;;
37001;SDS011;22913;51.910;8.374;2022-10-17T01:16:33;6.67;;;6.00;;
37001;SDS011;22913;51.910;8.374;2022-10-17T01:19:37;8.73;;;6.03;;
37001;SDS011;22913;51.910;8.374;2022-10-17T01:22:42;6.53;;;5.93;;
37001;SDS011;22913;51.910;8.374;2022-10-17T01:25:33;6.33;;;5.83;;
37001;SDS011;22913;51.910;8.374;2022-10-17T01:28:42;7.93;;;6.03;;
37001;SDS011;22913;51.910;8.374;2022-10-17T01:32:00;6.67;;;6.07;;
37001;SDS011;22913;51.910;8.374;2022-10-17T01:34:51;7.20;;;6.60;;
37001;SDS011;22913;51.910;8.374;2022-10-17T01:37:44;6.13;;;5.53;;
37001;SDS011;22913;51.910;8.374;2022-10-17T01:40:33;6.93;;;5.93;;
37001;SDS011;22913;51.910;8.374;2022-10-17T01:43:22;6.43;;;5.93;;
37001;SDS011;22913;51.910;8.374;2022-10-17T01:46:14;6.47;;;5.97;;
37001;SDS011;22913;51.910;8.374;2022-10-17T01:49:06;6.33;;;5.73;;
37001;SDS011;22913;51.910;8.374;2022-10-17T01:51:55;6.20;;;5.50;;
37001;SDS011;22913;51.910;8.374;2022-10-17T01:54:46;8.73;;;6.00;;
37001;SDS011;22913;51.910;8.374;2022-10-17T01:57:36;6.73;;;6.03;;
37001;SDS011;22913;51.910;8.374;2022-10-17T02:00:25;6.50;;;6.00;;
37001;SDS011;22913;51.910;8.374;2022-10-17T02:03:15;6.37;;;5.90;;
37001;SDS011;22913;51.910;8.374;2022-10-17T02:06:04;6.70;;;6.17;;
37001;SDS011;22913;51.910;8.374;2022-10-17T02:08:50;6.77;;;5.73;;
37001;SDS011;22913;51.910;8.374;2022-10-17T02:11:37;7.10;;;6.50;;
37001;SDS011;22913;51.910;8.374;2022-10-17T02:14:24;6.70;;;6.17;;
37001;SDS011;22913;51.910;8.374;2022-10-17T02:17:24;7.27;;;6.10;;
37001;SDS011;22913;51.910;8.374;2022-10-17T02:20:24;7.33;;;6.70;;
37001;SDS011;22913;51.910;8.374;2022-10-17T02:23:17;7.47;;;6.67;;
37001;SDS011;22913;51.910;8.374;2022-10-17T02:26:10;7.33;;;6.57;;
37001;SDS011;22913;51.910;8.374;2022-10-17T02:29:02;7.13;;;6.43;;
37001;SDS011;22913;51.910;8.374;2022-10-17T02:31:53;8.30;;;6.70;;
37001;SDS011;22913;51.910;8.374;2022-10-17T02:34:43;7.33;;;6.73;;
37001;SDS011;22913;51.910;8.374;2022-10-17T02:37:31;6.63;;;5.90;;
37001;SDS011;22913;51.910;8.374;2022-10-17T02:40:19;7.47;;;6.67;;
37001;SDS011;22913;51.910;8.374;2022-10-17T02:43:08;7.17;;;6.57;;
37001;SDS011;22913;51.910;8.374;2022-10-17T02:45:54;6.87;;;6.07;;
37001;SDS011;22913;51.910;8.374;2022-10-17T02:48:41;7.23;;;6.53;;
37001;SDS011;22913;51.910;8.374;2022-10-17T02:51:32;7.00;;;6.30;;
37001;SDS011;22913;51.910;8.374;2022-10-17T02:54:26;7.07;;;6.40;;
37001;SDS011;22913;51.910;8.374;2022-10-17T02:57:21;6.47;;;5.90;;
37001;SDS011;22913;51.910;8.374;2022-10-17T03:00:12;7.03;;;6.40;;
37001;SDS011;22913;51.910;8.374;2022-10-17T03:02:59;7.40;;;6.80;;
37001;SDS011;22913;51.910;8.374;2022-10-17T03:05:46;6.67;;;6.17;;
37001;SDS011;22913;51.910;8.374;2022-10-17T03:08:32;6.93;;;6.33;;
37001;SDS011;22913;51.910;8.374;2022-10-17T03:11:18;6.87;;;6.27;;
37001;SDS011;22913;51.910;8.374;2022-10-17T03:14:05;7.00;;;6.43;;
37001;SDS011;22913;51.910;8.374;2022-10-17T03:16:51;7.67;;;6.00;;
37001;SDS011;22913;51.910;8.374;2022-10-17T03:19:37;7.00;;;6.40;;
37001;SDS011;22913;51.910;8.374;2022-10-17T03:22:22;7.63;;;6.27;;
37001;SDS011;22913;51.910;8.374;2022-10-17T03:25:09;6.90;;;6.37;;
37001;SDS011;22913;51.910;8.374;2022-10-17T03:27:56;7.40;;;6.17;;
37001;SDS011;22913;51.910;8.374;2022-10-17T03:30:44;7.20;;;6.70;;
37001;SDS011;22913;51.910;8.374;2022-10-17T03:33:30;9.10;;;6.67;;
37001;SDS011;22913;51.910;8.374;2022-10-17T03:36:16;6.80;;;6.30;;
37001;SDS011;22913;51.910;8.374;2022-10-17T03:39:03;8.17;;;6.57;;
37001;SDS011;22913;51.910;8.374;2022-10-17T03:41:48;6.67;;;6.17;;
37001;SDS011;22913;51.910;8.374;2022-10-17T03:44:34;10.70;;;6.77;;
37001;SDS011;22913;51.910;8.374;2022-10-17T03:47:21;7.00;;;6.40;;
37001;SDS011;22913;51.910;8.374;2022-10-17T03:50:07;7.53;;;6.80;;
37001;SDS011;22913;51.910;8.374;2022-10-17T03:52:52;7.20;;;6.37;;
37001;SDS011;22913;51.910;8.374;2022-10-17T03:55:38;8.60;;;6.40;;
37001;SDS011;22913;51.910;8.374;2022-10-17T03:58:24;7.10;;;6.43;;
37001;SDS011;22913;51.910;8.374;2022-10-17T04:01:10;7.03;;;6.33;;
37001;SDS011;22913;51.910;8.374;2022-10-17T04:03:59;7.60;;;6.33;;
37001;SDS011;22913;51.910;8.374;2022-10-17T04:06:44;7.00;;;6.40;;
37001;SDS011;22913;51.910;8.374;2022-10-17T04:09:30;7.10;;;6.60;;
37001;SDS011;22913;51.910;8.374;2022-10-17T04:12:15;7.03;;;6.43;;
37001;SDS011;22913;51.910;8.374;2022-10-17T04:15:01;7.00;;;6.40;;
37001;SDS011;22913;51.910;8.374;2022-10-17T04:17:46;6.73;;;6.23;;
37001;SDS011;22913;51.910;8.374;2022-10-17T04:20:34;8.00;;;6.30;;
37001;SDS011;22913;51.910;8.374;2022-10-17T04:23:20;10.93;;;6.70;;
37001;SDS011;22913;51.910;8.374;2022-10-17T04:26:05;11.80;;;7.17;;
37001;SDS011;22913;51.910;8.374;2022-10-17T04:28:51;6.90;;;6.30;;
37001;SDS011;22913;51.910;8.374;2022-10-17T04:31:36;7.10;;;6.50;;
37001;SDS011;22913;51.910;8.374;2022-10-17T04:34:22;8.63;;;6.87;;
37001;SDS011;22913;51.910;8.374;2022-10-17T04:37:09;7.47;;;6.77;;
37001;SDS011;22913;51.910;8.374;2022-10-17T04:39:54;7.00;;;6.50;;
37001;SDS011;22913;51.910;8.374;2022-10-17T04:42:40;8.07;;;7.13;;
37001;SDS011;22913;51.910;8.374;2022-10-17T04:45:26;6.93;;;6.23;;
37001;SDS011;22913;51.910;8.374;2022-10-17T04:48:11;7.90;;;7.10;;
37001;SDS011;22913;51.910;8.374;2022-10-17T04:50:57;7.00;;;6.40;;
37001;SDS011;22913;51.910;8.374;2022-10-17T04:53:46;8.80;;;7.60;;
37001;SDS011;22913;51.910;8.374;2022-10-17T04:56:31;7.73;;;7.10;;
37001;SDS011;22913;51.910;8.374;2022-10-17T04:59:17;7.67;;;7.07;;
37001;SDS011;22913;51.910;8.374;2022-10-17T05:02:03;7.27;;;6.67;;
37001;SDS011;22913;51.910;8.374;2022-10-17T05:04:49;7.67;;;6.93;;
37001;SDS011;22913;51.910;8.374;2022-10-17T05:07:35;7.43;;;6.80;;
37001;SDS011;22913;51.910;8.374;2022-10-17T05:10:25;7.77;;;7.17;;
37001;SDS011;22913;51.910;8.374;2022-10-17T05:13:11;7.93;;;7.23;;
37001;SDS011;22913;51.910;8.374;2022-10-17T05:15:58;8.80;;;7.13;;
37001;SDS011;22913;51.910;8.374;2022-10-17T05:18:46;7.50;;;6.93;;
37001;SDS011;22913;51.910;8.374;2022-10-17T05:21:33;8.87;;;7.27;;
37001;SDS011;22913;51.910;8.374;2022-10-17T05:24:19;9.63;;;7.13;;
37001;SDS011;22913;51.910;8.374;2022-10-17T05:27:07;8.17;;;7.20;;
37001;SDS011;22913;51.910;8.374;2022-10-17T05:29:52;7.50;;;6.80;;
37001;SDS011;22913;51.910;8.374;2022-10-17T05:32:38;7.27;;;6.57;;
37001;SDS011;22913;51.910;8.374;2022-10-17T05:35:24;7.93;;;6.80;;
37001;SDS011;22913;51.910;8.374;2022-10-17T05:38:10;7.50;;;6.80;;
37001;SDS011;22913;51.910;8.374;2022-10-17T05:40:56;8.60;;;7.77;;
37001;SDS011;22913;51.910;8.374;2022-10-17T05:43:43;8.83;;;7.13;;
37001;SDS011;22913;51.910;8.374;2022-10-17T05:46:29;7.47;;;6.77;;
37001;SDS011;22913;51.910;8.374;2022-10-17T05:49:15;14.83;;;6.87;;
37001;SDS011;22913;51.910;8.374;2022-10-17T05:52:01;10.50;;;7.07;;
37001;SDS011;22913;51.910;8.374;2022-10-17T05:54:47;7.17;;;6.53;;
37001;SDS011;22913;51.910;8.374;2022-10-17T05:57:33;8.67;;;6.87;;
37001;SDS011;22913;51.910;8.374;2022-10-17T06:00:20;7.33;;;6.63;;
37001;SDS011;22913;51.910;8.374;2022-10-17T06:03:07;6.90;;;6.40;;
37001;SDS011;22913;51.910;8.374;2022-10-17T06:05:55;7.77;;;7.23;;
37001;SDS011;22913;51.910;8.374;2022-10-17T06:08:46;7.13;;;6.53;;
37001;SDS011;22913;51.910;8.374;2022-10-17T06:11:32;8.23;;;7.43;;
37001;SDS011;22913;51.910;8.374;2022-10-17T06:14:18;9.37;;;7.47;;
37001;SDS011;22913;51.910;8.374;2022-10-17T06:17:05;7.90;;;6.77;;
37001;SDS011;22913;51.910;8.374;2022-10-17T06:19:51;8.57;;;7.20;;
37001;SDS011;22913;51.910;8.374;2022-10-17T06:22:37;8.37;;;7.50;;
37001;SDS011;22913;51.910;8.374;2022-10-17T06:25:23;9.80;;;7.00;;
37001;SDS011;22913;51.910;8.374;2022-10-17T06:28:09;8.03;;;7.20;;
37001;SDS011;22913;51.910;8.374;2022-10-17T06:30:55;7.73;;;6.87;;
37001;SDS011;22913;51.910;8.374;2022-10-17T06:33:42;6.70;;;6.10;;
37001;SDS011;22913;51.910;8.374;2022-10-17T06:36:28;9.37;;;7.33;;
37001;SDS011;22913;51.910;8.374;2022-10-17T06:39:14;7.13;;;6.53;;
37001;SDS011;22913;51.910;8.374;2022-10-17T06:42:00;7.13;;;6.50;;
37001;SDS011;22913;51.910;8.374;2022-10-17T06:44:46;8.00;;;6.63;;
37001;SDS011;22913;51.910;8.374;2022-10-17T06:47:32;8.97;;;6.67;;
37001;SDS011;22913;51.910;8.374;2022-10-17T06:50:19;6.20;;;5.57;;
37001;SDS011;22913;51.910;8.374;2022-10-17T06:53:05;8.97;;;6.30;;
37001;SDS011;22913;51.910;8.374;2022-10-17T06:55:51;8.07;;;6.77;;
37001;SDS011;22913;51.910;8.374;2022-10-17T06:58:38;7.47;;;6.80;;
37001;SDS011;22913;51.910;8.374;2022-10-17T07:01:25;7.77;;;6.70;;
37001;SDS011;22913;51.910;8.374;2022-10-17T07:04:11;8.70;;;6.23;;
37001;SDS011;22913;51.910;8.374;2022-10-17T07:06:58;6.37;;;5.90;;
37001;SDS011;22913;51.910;8.374;2022-10-17T07:09:45;7.47;;;6.20;;
37001;SDS011;22913;51.910;8.374;2022-10-17T07:12:31;6.37;;;5.87;;
37001;SDS011;22913;51.910;8.374;2022-10-17T07:15:18;6.43;;;5.93;;
37001;SDS011;22913;51.910;8.374;2022-10-17T07:18:03;7.23;;;6.57;;
37001;SDS011;22913;51.910;8.374;2022-10-17T07:20:53;7.77;;;6.10;;
37001;SDS011;22913;51.910;8.374;2022-10-17T07:23:40;12.07;;;6.90;;
37001;SDS011;22913;51.910;8.374;2022-10-17T07:26:25;10.40;;;7.10;;
37001;SDS011;22913;51.910;8.374;2022-10-17T07:29:11;6.70;;;6.10;;
37001;SDS011;22913;51.910;8.374;2022-10-17T07:31:57;8.40;;;6.17;;
37001;SDS011;22913;51.910;8.374;2022-10-17T07:34:42;7.00;;;5.17;;
37001;SDS011;22913;51.910;8.374;2022-10-17T07:37:28;7.47;;;6.40;;
37001;SDS011;22913;51.910;8.374;2022-10-17T07:40:15;9.50;;;7.37;;
37001;SDS011;22913;51.910;8.374;2022-10-17T07:43:01;6.27;;;5.77;;
37001;SDS011;22913;51.910;8.374;2022-10-17T07:45:47;9.60;;;6.07;;
37001;SDS011;22913;51.910;8.374;2022-10-17T07:48:32;9.63;;;6.70;;
37001;SDS011;22913;51.910;8.374;2022-10-17T07:51:18;7.37;;;6.60;;
37001;SDS011;22913;51.910;8.374;2022-10-17T07:54:04;7.27;;;6.57;;
37001;SDS011;22913;51.910;8.374;2022-10-17T07:56:51;7.20;;;5.70;;
37001;SDS011;22913;51.910;8.374;2022-10-17T07:59:37;6.73;;;6.10;;
37001;SDS011;22913;51.910;8.374;2022-10-17T08:02:23;7.10;;;5.83;;
37001;SDS011;22913;51.910;8.374;2022-10-17T08:05:09;12.43;;;6.20;;
37001;SDS011;22913;51.910;8.374;2022-10-17T08:07:55;6.13;;;5.50;;
37001;SDS011;22913;51.910;8.374;2022-10-17T08:10:41;8.90;;;5.67;;
37001;SDS011;22913;51.910;8.374;2022-10-17T08:13:28;10.97;;;5.90;;
37001;SDS011;22913;51.910;8.374;2022-10-17T08:16:13;6.73;;;6.10;;
37001;SDS011;22913;51.910;8.374;2022-10-17T08:18:59;6.90;;;5.67;;
37001;SDS011;22913;51.910;8.374;2022-10-17T08:21:45;7.33;;;5.30;;
37001;SDS011;22913;51.910;8.374;2022-10-17T08:24:33;7.33;;;5.03;;
37001;SDS011;22913;51.910;8.374;2022-10-17T08:27:18;9.33;;;5.70;;
37001;SDS011;22913;51.910;8.374;2022-10-17T08:30:09;7.27;;;5.30;;
37001;SDS011;22913;51.910;8.374;2022-10-17T08:32:55;5.20;;;4.70;;
37001;SDS011;22913;51.910;8.374;2022-10-17T08:35:41;5.70;;;5.20;;
37001;SDS011;22913;51.910;8.374;2022-10-17T08:38:27;5.27;;;4.77;;
37001;SDS011;22913;51.910;8.374;2022-10-17T08:41:14;7.30;;;4.67;;
37001;SDS011;22913;51.910;8.374;2022-10-17T08:44:17;5.40;;;4.90;;
37001;SDS011;22913;51.910;8.374;2022-10-17T08:47:13;7.67;;;4.80;;
37001;SDS011;22913;51.910;8.374;2022-10-17T08:50:04;5.97;;;4.37;;
37001;SDS011;22913;51.910;8.374;2022-10-17T08:52:56;4.97;;;4.40;;
37001;SDS011;22913;51.910;8.374;2022-10-17T08:55:47;5.53;;;4.33;;
37001;SDS011;22913;51.910;8.374;2022-10-17T08:58:37;4.70;;;4.00;;
37001;SDS011;22913;51.910;8.374;2022-10-17T09:01:31;7.47;;;4.70;;
37001;SDS011;22913;51.910;8.374;2022-10-17T09:04:37;4.43;;;4.03;;
37001;SDS011;22913;51.910;8.374;2022-10-17T09:07:39;7.93;;;4.37;;
37001;SDS011;22913;51.910;8.374;2022-10-17T09:10:32;4.97;;;3.80;;
37001;SDS011;22913;51.910;8.374;2022-10-17T09:13:38;5.37;;;4.00;;
37001;SDS011;22913;51.910;8.374;2022-10-17T09:16:39;6.83;;;4.57;;
37001;SDS011;22913;51.910;8.374;2022-10-17T09:19:36;5.07;;;4.10;;
37001;SDS011;22913;51.910;8.374;2022-10-17T09:22:26;4.27;;;3.83;;
37001;SDS011;22913;51.910;8.374;2022-10-17T09:25:16;5.00;;;3.70;;
37001;SDS011;22913;51.910;8.374;2022-10-17T09:28:09;4.67;;;4.20;;
37001;SDS011;22913;51.910;8.374;2022-10-17T09:30:58;4.60;;;4.17;;
37001;SDS011;22913;51.910;8.374;2022-10-17T09:33:47;4.20;;;3.80;;
37001;SDS011;22913;51.910;8.374;2022-10-17T09:36:36;6.30;;;3.50;;
37001;SDS011;22913;51.910;8.374;2022-10-17T09:39:23;3.93;;;3.60;;
37001;SDS011;22913;51.910;8.374;2022-10-17T09:42:11;3.97;;;3.40;;
37001;SDS011;22913;51.910;8.374;2022-10-17T09:45:02;6.00;;;4.00;;
37001;SDS011;22913;51.910;8.374;2022-10-17T09:48:03;4.03;;;3.47;;
37001;SDS011;22913;51.910;8.374;2022-10-17T09:50:54;3.97;;;3.23;;
37001;SDS011;22913;51.910;8.374;2022-10-17T09:53:43;4.30;;;3.53;;
37001;SDS011;22913;51.910;8.374;2022-10-17T09:56:32;5.37;;;3.20;;
37001;SDS011;22913;51.910;8.374;2022-10-17T09:59:43;7.80;;;3.77;;
37001;SDS011;22913;51.910;8.374;2022-10-17T10:02:30;5.10;;;3.37;;
37001;SDS011;22913;51.910;8.374;2022-10-17T10:05:19;3.97;;;3.57;;
37001;SDS011;22913;51.910;8.374;2022-10-17T10:08:05;4.37;;;2.87;;
37001;SDS011;22913;51.910;8.374;2022-10-17T10:11:00;6.77;;;3.40;;
37001;SDS011;22913;51.910;8.374;2022-10-17T10:13:48;3.83;;;3.30;;
37001;SDS011;22913;51.910;8.374;2022-10-17T10:16:35;4.87;;;3.40;;
37001;SDS011;22913;51.910;8.374;2022-10-17T10:19:28;7.07;;;3.90;;
37001;SDS011;22913;51.910;8.374;2022-10-17T10:22:16;4.93;;;3.57;;
37001;SDS011;22913;51.910;8.374;2022-10-17T10:25:06;3.87;;;3.53;;
37001;SDS011;22913;51.910;8.374;2022-10-17T10:27:58;6.10;;;3.20;;
37001;SDS011;22913;51.910;8.374;2022-10-17T10:30:46;5.53;;;2.90;;
37001;SDS011;22913;51.910;8.374;2022-10-17T10:33:33;3.23;;;2.83;;
37001;SDS011;22913;51.910;8.374;2022-10-17T10:36:24;4.63;;;2.53;;
37001;SDS011;22913;51.910;8.374;2022-10-17T10:39:13;6.00;;;3.30;;
37001;SDS011;22913;51.910;8.374;2022-10-17T10:42:22;3.57;;;2.67;;
37001;SDS011;22913;51.910;8.374;2022-10-17T10:45:15;5.07;;;2.80;;
37001;SDS011;22913;51.910;8.374;2022-10-17T10:48:17;8.00;;;3.30;;
37001;SDS011;22913;51.910;8.374;2022-10-17T10:51:07;4.60;;;3.07;;
37001;SDS011;22913;51.910;8.374;2022-10-17T10:53:58;3.83;;;2.63;;
37001;SDS011;22913;51.910;8.374;2022-10-17T10:56:48;6.30;;;3.10;;
37001;SDS011;22913;51.910;8.374;2022-10-17T10:59:36;8.40;;;2.97;;
37001;SDS011;22913;51.910;8.374;2022-10-17T11:02:29;3.20;;;2.90;;
37001;SDS011;22913;51.910;8.374;2022-10-17T11:05:20;5.43;;;2.60;;
37001;SDS011;22913;51.910;8.374;2022-10-17T11:08:22;5.03;;;3.20;;
37001;SDS011;22913;51.910;8.374;2022-10-17T11:11:12;8.07;;;3.10;;
37001;SDS011;22913;51.910;8.374;2022-10-17T11:14:08;5.53;;;2.90;;
37001;SDS011;22913;51.910;8.374;2022-10-17T11:17:02;3.10;;;2.80;;
37001;SDS011;22913;51.910;8.374;2022-10-17T11:19:58;5.63;;;2.90;;
37001;SDS011;22913;51.910;8.374;2022-10-17T11:22:51;8.63;;;3.17;;
37001;SDS011;22913;51.910;8.374;2022-10-17T11:25:41;4.50;;;2.77;;
37001;SDS011;22913;51.910;8.374;2022-10-17T11:28:27;9.23;;;3.50;;
37001;SDS011;22913;51.910;8.374;2022-10-17T11:31:14;6.37;;;3.23;;
37001;SDS011;22913;51.910;8.374;2022-10-17T11:34:02;3.63;;;3.00;;
37001;SDS011;22913;51.910;8.374;2022-10-17T11:36:55;6.13;;;2.63;;
37001;SDS011;22913;51.910;8.374;2022-10-17T11:39:44;9.80;;;3.20;;
37001;SDS011;22913;51.910;8.374;2022-10-17T11:42:34;6.00;;;3.07;;
37001;SDS011;22913;51.910;8.374;2022-10-17T11:45:25;4.57;;;3.10;;
37001;SDS011;22913;51.910;8.374;2022-10-17T11:48:16;5.53;;;2.97;;
37001;SDS011;22913;51.910;8.374;2022-10-17T11:51:07;6.40;;;3.20;;
37001;SDS011;22913;51.910;8.374;2022-10-17T11:53:58;7.27;;;3.10;;
37001;SDS011;22913;51.910;8.374;2022-10-17T12:07:53;6.33;;;3.07;;
37001;SDS011;22913;51.910;8.374;2022-10-17T12:10:46;8.20;;;3.83;;
37001;SDS011;22913;51.910;8.374;2022-10-17T12:13:52;3.77;;;2.70;;
37001;SDS011;22913;51.910;8.374;2022-10-17T12:16:43;3.87;;;3.17;;
37001;SDS011;22913;51.910;8.374;2022-10-17T12:19:30;6.67;;;3.53;;
37001;SDS011;22913;51.910;8.374;2022-10-17T12:22:19;6.50;;;3.40;;
37001;SDS011;22913;51.910;8.374;2022-10-17T12:25:15;7.80;;;3.50;;
37001;SDS011;22913;51.910;8.374;2022-10-17T12:28:14;3.20;;;2.90;;
37001;SDS011;22913;51.910;8.374;2022-10-17T12:31:03;8.57;;;3.20;;
37001;SDS011;22913;51.910;8.374;2022-10-17T12:33:53;7.00;;;2.50;;
37001;SDS011;22913;51.910;8.374;2022-10-17T12:36:40;4.67;;;3.10;;
37001;SDS011;22913;51.910;8.374;2022-10-17T12:42:31;5.33;;;2.90;;
37001;SDS011;22913;51.910;8.374;2022-10-17T12:55:12;4.37;;;2.80;;
37001;SDS011;22913;51.910;8.374;2022-10-17T12:58:00;4.23;;;2.80;;
37001;SDS011;22913;51.910;8.374;2022-10-17T13:00:50;6.53;;;3.20;;
37001;SDS011;22913;51.910;8.374;2022-10-17T13:03:40;5.53;;;3.10;;
37001;SDS011;22913;51.910;8.374;2022-10-17T13:06:28;4.00;;;3.00;;
37001;SDS011;22913;51.910;8.374;2022-10-17T13:09:23;5.93;;;3.30;;
37001;SDS011;22913;51.910;8.374;2022-10-17T13:12:12;4.73;;;2.90;;
37001;SDS011;22913;51.910;8.374;2022-10-17T13:15:03;3.77;;;3.10;;
37001;SDS011;22913;51.910;8.374;2022-10-17T13:17:57;4.23;;;2.80;;
37001;SDS011;22913;51.910;8.374;2022-10-17T13:20:43;3.57;;;3.23;;
37001;SDS011;22913;51.910;8.374;2022-10-17T13:23:39;5.10;;;3.03;;
37001;SDS011;22913;51.910;8.374;2022-10-17T13:26:25;9.63;;;3.00;;
37001;SDS011;22913;51.910;8.374;2022-10-17T13:29:12;4.67;;;3.13;;
37001;SDS011;22913;51.910;8.374;2022-10-17T13:32:00;7.90;;;2.97;;
37001;SDS011;22913;51.910;8.374;2022-10-17T13:37:53;4.20;;;2.80;;
37001;SDS011;22913;51.910;8.374;2022-10-17T13:40:41;6.53;;;3.50;;
37001;SDS011;22913;51.910;8.374;2022-10-17T13:43:27;3.07;;;2.77;;
37001;SDS011;22913;51.910;8.374;2022-10-17T13:46:17;7.57;;;3.27;;
37001;SDS011;22913;51.910;8.374;2022-10-17T13:49:09;4.63;;;3.00;;
37001;SDS011;22913;51.910;8.374;2022-10-17T13:52:03;8.47;;;3.23;;
37001;SDS011;22913;51.910;8.374;2022-10-17T13:54:50;5.03;;;3.10;;
37001;SDS011;22913;51.910;8.374;2022-10-17T13:57:36;5.73;;;3.57;;
37001;SDS011;22913;51.910;8.374;2022-10-17T14:00:22;5.07;;;3.27;;
37001;SDS011;22913;51.910;8.374;2022-10-17T14:03:07;6.30;;;3.17;;
37001;SDS011;22913;51.910;8.374;2022-10-17T14:06:00;6.97;;;3.30;;
37001;SDS011;22913;51.910;8.374;2022-10-17T14:08:55;6.27;;;3.37;;
37001;SDS011;22913;51.910;8.374;2022-10-17T14:11:43;5.03;;;3.10;;
37001;SDS011;22913;51.910;8.374;2022-10-17T14:14:39;10.27;;;4.00;;
37001;SDS011;22913;51.910;8.374;2022-10-17T14:17:31;8.10;;;3.20;;
37001;SDS011;22913;51.910;8.374;2022-10-17T14:20:18;5.57;;;3.77;;
37001;SDS011;22913;51.910;8.374;2022-10-17T14:23:25;7.60;;;2.90;;
37001;SDS011;22913;51.910;8.374;2022-10-17T14:26:17;5.10;;;3.40;;
37001;SDS011;22913;51.910;8.374;2022-10-17T14:29:04;4.80;;;3.60;;
37001;SDS011;22913;51.910;8.374;2022-10-17T14:32:01;6.03;;;3.50;;
37001;SDS011;22913;51.910;8.374;2022-10-17T14:34:51;6.13;;;3.50;;
37001;SDS011;22913;51.910;8.374;2022-10-17T14:37:40;4.73;;;3.20;;
37001;SDS011;22913;51.910;8.374;2022-10-17T14:40:29;6.17;;;3.33;;
37001;SDS011;22913;51.910;8.374;2022-10-17T14:43:18;3.53;;;3.20;;
37001;SDS011;22913;51.910;8.374;2022-10-17T14:46:06;9.07;;;3.97;;
37001;SDS011;22913;51.910;8.374;2022-10-17T14:49:01;5.87;;;3.33;;
37001;SDS011;22913;51.910;8.374;2022-10-17T14:55:20;6.97;;;3.60;;
37001;SDS011;22913;51.910;8.374;2022-10-17T14:58:21;4.53;;;3.30;;
37001;SDS011;22913;51.910;8.374;2022-10-17T15:01:10;5.10;;;3.00;;
37001;SDS011;22913;51.910;8.374;2022-10-17T15:03:56;5.07;;;3.63;;
37001;SDS011;22913;51.910;8.374;2022-10-17T15:06:41;8.87;;;3.50;;
37001;SDS011;22913;51.910;8.374;2022-10-17T15:09:27;4.43;;;3.20;;
37001;SDS011;22913;51.910;8.374;2022-10-17T15:12:13;5.33;;;3.40;;
37001;SDS011;22913;51.910;8.374;2022-10-17T15:15:01;6.70;;;2.97;;
37001;SDS011;22913;51.910;8.374;2022-10-17T15:17:46;4.73;;;3.27;;
37001;SDS011;22913;51.910;8.374;2022-10-17T15:20:32;5.83;;;3.60;;
37001;SDS011;22913;51.910;8.374;2022-10-17T15:23:18;4.90;;;3.40;;
37001;SDS011;22913;51.910;8.374;2022-10-17T15:26:07;4.40;;;3.23;;
37001;SDS011;22913;51.910;8.374;2022-10-17T15:29:00;4.90;;;3.60;;
37001;SDS011;22913;51.910;8.374;2022-10-17T15:31:47;7.90;;;3.83;;
37001;SDS011;22913;51.910;8.374;2022-10-17T15:34:32;5.27;;;3.30;;
37001;SDS011;22913;51.910;8.374;2022-10-17T15:37:19;5.67;;;3.40;;
37001;SDS011;22913;51.910;8.374;2022-10-17T15:40:08;6.73;;;3.50;;
37001;SDS011;22913;51.910;8.374;2022-10-17T15:42:57;4.40;;;3.10;;
37001;SDS011;22913;51.910;8.374;2022-10-17T15:45:43;5.53;;;3.30;;
37001;SDS011;22913;51.910;8.374;2022-10-17T15:48:30;5.77;;;3.43;;
37001;SDS011;22913;51.910;8.374;2022-10-17T15:51:16;6.70;;;3.10;;
37001;SDS011;22913;51.910;8.374;2022-10-17T15:54:02;8.13;;;3.23;;
37001;SDS011;22913;51.910;8.374;2022-10-17T15:56:51;6.50;;;3.40;;
37001;SDS011;22913;51.910;8.374;2022-10-17T15:59:38;5.30;;;3.00;;
37001;SDS011;22913;51.910;8.374;2022-10-17T16:02:24;5.13;;;2.90;;
37001;SDS011;22913;51.910;8.374;2022-10-17T16:05:14;4.23;;;2.97;;
37001;SDS011;22913;51.910;8.374;2022-10-17T16:08:01;6.17;;;3.27;;
37001;SDS011;22913;51.910;8.374;2022-10-17T16:10:46;5.77;;;3.20;;
37001;SDS011;22913;51.910;8.374;2022-10-17T16:13:32;5.33;;;3.00;;
37001;SDS011;22913;51.910;8.374;2022-10-17T16:16:18;7.50;;;2.63;;
37001;SDS011;22913;51.910;8.374;2022-10-17T16:19:04;6.00;;;3.57;;
37001;SDS011;22913;51.910;8.374;2022-10-17T16:21:52;4.57;;;3.17;;
37001;SDS011;22913;51.910;8.374;2022-10-17T16:24:38;5.63;;;2.83;;
37001;SDS011;22913;51.910;8.374;2022-10-17T16:27:24;8.60;;;3.40;;
37001;SDS011;22913;51.910;8.374;2022-10-17T16:30:09;5.60;;;3.60;;
37001;SDS011;22913;51.910;8.374;2022-10-17T16:32:55;5.03;;;3.60;;
37001;SDS011;22913;51.910;8.374;2022-10-17T16:35:41;6.77;;;3.77;;
37001;SDS011;22913;51.910;8.374;2022-10-17T16:38:29;9.60;;;4.47;;
37001;SDS011;22913;51.910;8.374;2022-10-17T16:41:20;7.90;;;4.07;;
37001;SDS011;22913;51.910;8.374;2022-10-17T16:44:07;6.10;;;3.80;;
37001;SDS011;22913;51.910;8.374;2022-10-17T16:46:57;5.50;;;4.13;;
37001;SDS011;22913;51.910;8.374;2022-10-17T16:49:43;7.03;;;4.20;;
37001;SDS011;22913;51.910;8.374;2022-10-17T16:52:28;7.67;;;4.30;;
37001;SDS011;22913;51.910;8.374;2022-10-17T16:55:15;8.00;;;4.30;;
37001;SDS011;22913;51.910;8.374;2022-10-17T16:58:02;8.17;;;4.10;;
37001;SDS011;22913;51.910;8.374;2022-10-17T17:00:48;4.87;;;4.37;;
37001;SDS011;22913;51.910;8.374;2022-10-17T17:03:34;12.23;;;4.67;;
37001;SDS011;22913;51.910;8.374;2022-10-17T17:06:21;6.43;;;4.03;;
37001;SDS011;22913;51.910;8.374;2022-10-17T17:09:09;6.43;;;4.33;;
37001;SDS011;22913;51.910;8.374;2022-10-17T17:11:56;8.53;;;4.30;;
37001;SDS011;22913;51.910;8.374;2022-10-17T17:14:41;6.47;;;4.90;;
37001;SDS011;22913;51.910;8.374;2022-10-17T17:17:27;9.87;;;4.93;;
37001;SDS011;22913;51.910;8.374;2022-10-17T17:20:12;9.03;;;5.00;;
37001;SDS011;22913;51.910;8.374;2022-10-17T17:22:58;6.63;;;5.43;;
37001;SDS011;22913;51.910;8.374;2022-10-17T17:25:44;8.77;;;5.60;;
37001;SDS011;22913;51.910;8.374;2022-10-17T17:28:31;8.37;;;5.80;;